Turner Center, Maine
Current Conditions -  °F | °C
As of 4:35 AM on Sunday 26 Oct 2014 (Local Time) from KLEW Reporting Station
Overcast Overcast  
Wind Chill:   Ceiling: 100
Heat Index:   Visibility: 0.25mi
Dew Point:   Wind: 0mph
Humidity: 93%   Direction: NA
Pressure: 29.38"   Gusts: NA
Location:  44.27°N, 70.22°W
Report Text: KLEW 260835Z AUTO 00000KT 1/4SM OVC001 04/03 A2938 RMK AO1
Loading
Personal Weather Stations






























Interactive Weather Map
Tropical Storm Tracking
New forecast layout! Learn more

10-Day Weather Forecast

Advertisements
Track Severe Weather on mobile